createdAt,value
2018-01-26T00:00:03.512Z,58.27
2018-01-26T00:02:31.651Z,60.01
2018-01-26T00:05:00.059Z,60.71
2018-01-26T00:07:28.501Z,58.90
2018-01-26T00:09:56.896Z,59.36
2018-01-26T00:12:25.307Z,58.78
2018-01-26T00:14:53.714Z,60.67
2018-01-26T00:17:22.100Z,60.11
2018-01-26T00:19:50.730Z,61.58
2018-01-26T00:22:19.210Z,61.42
2018-01-26T00:24:47.664Z,62.06
2018-01-26T00:27:16.039Z,61.02
2018-01-26T00:29:44.404Z,61.74
2018-01-26T00:32:12.843Z,61.93
2018-01-26T00:34:41.208Z,61.51
2018-01-26T00:37:09.982Z,65.66
2018-01-26T00:39:38.342Z,65.57
2018-01-26T00:42:06.734Z,64.52
2018-01-26T00:44:35.199Z,64.92
2018-01-26T00:47:03.573Z,62.93
2018-01-26T00:49:32.270Z,62.44
2018-01-26T00:52:00.668Z,61.98
2018-01-26T00:54:29.163Z,61.69
2018-01-26T00:56:57.515Z,60.14
2018-01-26T00:59:26.214Z,60.02
2018-01-26T01:01:54.592Z,60.80
2018-01-26T01:04:23.060Z,60.31
2018-01-26T01:06:51.440Z,59.13
2018-01-26T01:09:19.818Z,59.98
2018-01-26T01:11:48.274Z,60.41
2018-01-26T01:14:16.654Z,63.22
2018-01-26T01:16:45.054Z,61.32
2018-01-26T01:19:13.432Z,60.93
2018-01-26T01:21:41.791Z,60.62
2018-01-26T01:24:10.243Z,59.63
2018-01-26T01:26:38.638Z,59.89
2018-01-26T01:29:07.003Z,59.02
2018-01-26T01:31:35.377Z,59.10
2018-01-26T01:34:03.770Z,58.68
2018-01-26T01:36:32.490Z,57.99
2018-01-26T01:39:00.886Z,59.29
2018-01-26T01:41:29.254Z,58.70
2018-01-26T01:43:57.686Z,60.12
2018-01-26T01:46:26.126Z,59.20
2018-01-26T01:49:06.292Z,59.25
2018-01-26T01:51:35.038Z,59.27
2018-01-26T01:54:03.494Z,59.41
2018-01-26T01:56:31.889Z,59.39
2018-01-26T01:59:00.273Z,60.03
2018-01-26T02:01:28.943Z,59.53
2018-01-26T02:03:57.318Z,59.42
2018-01-26T02:06:25.703Z,59.45
2018-01-26T02:08:54.090Z,59.39
2018-01-26T02:11:22.478Z,58.54
2018-01-26T02:13:51.191Z,59.53
2018-01-26T02:16:23.009Z,59.38
2018-01-26T02:18:51.501Z,59.25
2018-01-26T02:21:19.863Z,61.01
2018-01-26T02:24:05.675Z,59.06
2018-01-26T02:26:39.907Z,59.43
2018-01-26T02:29:08.365Z,59.30
2018-01-26T02:31:36.830Z,58.41
2018-01-26T02:34:05.647Z,58.63
2018-01-26T02:36:34.052Z,58.35
2018-01-26T02:39:02.418Z,58.22
2018-01-26T02:41:30.892Z,57.90
2018-01-26T02:43:59.274Z,58.41
2018-01-26T02:46:28.043Z,59.08
2018-01-26T02:48:56.436Z,59.17
2018-01-26T02:51:24.819Z,58.41
2018-01-26T02:53:53.219Z,58.62
2018-01-26T02:56:21.639Z,59.87
2018-01-26T02:58:50.299Z,60.44
2018-01-26T03:01:18.683Z,59.95
2018-01-26T03:03:47.107Z,60.14
2018-01-26T03:06:15.487Z,59.52
2018-01-26T03:08:43.846Z,59.68
2018-01-26T03:11:12.552Z,59.94
2018-01-26T03:13:41.027Z,60.41
2018-01-26T03:16:09.379Z,59.78
2018-01-26T03:18:37.784Z,58.51
2018-01-26T03:21:06.522Z,58.56
2018-01-26T03:23:34.913Z,57.18
2018-01-26T03:26:03.296Z,59.14
2018-01-26T03:28:31.676Z,58.99
2018-01-26T03:31:00.064Z,58.88
2018-01-26T03:33:28.582Z,60.13
2018-01-26T03:35:57.022Z,59.14
2018-01-26T03:38:25.426Z,59.69
2018-01-26T03:40:53.863Z,59.16
2018-01-26T03:43:22.238Z,59.63
2018-01-26T03:45:50.650Z,62.51
2018-01-26T03:48:19.049Z,63.54
2018-01-26T03:50:47.399Z,61.83
2018-01-26T03:53:16.183Z,60.97
2018-01-26T03:55:44.550Z,60.67
2018-01-26T03:58:12.929Z,60.45
2018-01-26T04:00:41.629Z,59.75
2018-01-26T04:03:09.992Z,59.60
2018-01-26T04:05:38.394Z,60.05
2018-01-26T04:08:07.215Z,58.94
2018-01-26T04:10:35.606Z,58.75
2018-01-26T04:13:04.009Z,58.96
2018-01-26T04:15:32.396Z,58.49
2018-01-26T04:18:00.775Z,59.19
2018-01-26T04:20:29.182Z,58.56
2018-01-26T04:22:57.882Z,58.49
2018-01-26T04:25:26.360Z,59.33
2018-01-26T04:27:54.755Z,59.84
2018-01-26T04:30:23.273Z,59.86
2018-01-26T04:32:51.664Z,59.76
2018-01-26T04:35:20.094Z,60.06
2018-01-26T04:37:48.446Z,59.88
2018-01-26T04:40:16.882Z,59.00
2018-01-26T04:42:45.320Z,60.39
2018-01-26T04:45:13.712Z,59.35
2018-01-26T04:47:42.091Z,60.86
2018-01-26T04:50:10.482Z,61.58
2018-01-26T04:52:38.886Z,59.23
2018-01-26T04:55:07.294Z,59.39
2018-01-26T04:57:35.795Z,60.19
2018-01-26T05:00:04.164Z,59.00
2018-01-26T05:02:32.552Z,59.36
2018-01-26T05:05:00.958Z,58.67
2018-01-26T05:07:29.383Z,58.17
2018-01-26T05:09:57.835Z,58.23
2018-01-26T05:12:26.233Z,59.18
2018-01-26T05:14:54.685Z,59.14
2018-01-26T05:17:23.097Z,59.68
2018-01-26T05:19:51.494Z,59.55
2018-01-26T05:22:20.230Z,59.81
2018-01-26T05:24:48.734Z,59.86
2018-01-26T05:27:17.136Z,58.69
2018-01-26T05:29:45.526Z,58.34
2018-01-26T05:32:13.970Z,58.68
2018-01-26T05:34:42.356Z,57.89
2018-01-26T05:37:10.763Z,58.91
2018-01-26T05:39:39.202Z,59.94
2018-01-26T05:42:07.613Z,59.88
2018-01-26T05:44:36.076Z,59.05
2018-01-26T05:47:04.486Z,59.26
2018-01-26T05:49:32.843Z,59.29
2018-01-26T05:52:01.241Z,59.16
2018-01-26T05:54:29.634Z,59.50
2018-01-26T05:56:58.103Z,58.72
2018-01-26T05:59:26.544Z,59.66
2018-01-26T06:01:54.932Z,60.07
2018-01-26T06:07:23.585Z,58.73
2018-01-26T06:09:51.985Z,60.17
2018-01-26T06:12:20.481Z,59.53
2018-01-26T06:14:48.878Z,59.89
2018-01-26T06:17:17.358Z,59.71
2018-01-26T06:19:46.050Z,61.89
2018-01-26T06:22:14.446Z,61.51
2018-01-26T06:24:42.907Z,62.72
2018-01-26T06:27:11.314Z,61.59
2018-01-26T06:29:39.726Z,61.24
2018-01-26T06:32:08.422Z,60.68
2018-01-26T06:34:36.811Z,59.09
2018-01-26T06:37:05.204Z,59.31
2018-01-26T06:39:33.599Z,59.13
2018-01-26T06:42:01.998Z,60.88
2018-01-26T06:44:30.470Z,62.69
2018-01-26T06:46:58.855Z,63.53
2018-01-26T06:49:27.307Z,63.99
2018-01-26T06:51:55.758Z,63.70
2018-01-26T06:54:24.150Z,63.16
2018-01-26T06:56:52.692Z,62.15
2018-01-26T06:59:21.088Z,61.47
2018-01-26T07:01:49.480Z,61.80
2018-01-26T07:04:17.870Z,63.89
2018-01-26T07:06:46.289Z,60.38
2018-01-26T07:09:14.983Z,60.06
2018-01-26T07:11:43.383Z,60.49
2018-01-26T07:14:11.798Z,59.70
2018-01-26T07:16:40.266Z,58.95
2018-01-26T07:19:08.686Z,58.14
2018-01-26T07:21:37.134Z,58.03
2018-01-26T07:24:05.547Z,58.49
2018-01-26T07:26:33.985Z,59.74
2018-01-26T07:29:02.378Z,59.44
2018-01-26T07:31:30.793Z,61.14
2018-01-26T07:33:59.248Z,62.22
2018-01-26T07:36:27.644Z,61.80
2018-01-26T07:38:56.034Z,60.66
2018-01-26T07:41:24.434Z,60.04
2018-01-26T07:43:52.845Z,60.60
2018-01-26T07:46:21.610Z,60.96
2018-01-26T07:48:50.014Z,61.35
2018-01-26T07:51:18.419Z,61.74
2018-01-26T07:53:46.839Z,60.85
2018-01-26T07:56:15.230Z,59.87
2018-01-26T07:58:43.676Z,60.09
2018-01-26T08:01:12.082Z,59.29
2018-01-26T08:03:40.558Z,59.34
2018-01-26T08:06:08.956Z,60.67
2018-01-26T08:08:37.351Z,61.44
2018-01-26T08:11:05.803Z,62.18
2018-01-26T08:13:34.202Z,61.49
2018-01-26T08:16:15.449Z,61.03
2018-01-26T08:18:43.926Z,60.16
2018-01-26T08:21:12.334Z,59.46
2018-01-26T08:23:40.747Z,60.42
2018-01-26T08:26:09.202Z,60.21
2018-01-26T08:28:37.649Z,60.47
2018-01-26T08:31:06.034Z,61.65
2018-01-26T08:33:34.438Z,60.12
2018-01-26T08:36:02.867Z,58.56
2018-01-26T08:38:31.272Z,58.25
2018-01-26T08:41:00.043Z,58.68
2018-01-26T08:43:29.986Z,57.53
2018-01-26T08:45:58.395Z,59.82
2018-01-26T08:48:26.800Z,57.39
2018-01-26T08:50:55.241Z,56.66
2018-01-26T08:53:23.963Z,58.21
2018-01-26T08:55:52.353Z,59.18
2018-01-26T08:58:20.754Z,55.82
2018-01-26T09:00:49.138Z,53.82
2018-01-26T09:03:17.602Z,53.67
2018-01-26T09:05:46.210Z,52.91
2018-01-26T09:08:14.603Z,52.97
2018-01-26T09:10:43.000Z,57.29
2018-01-26T09:13:11.407Z,55.60
2018-01-26T09:15:39.827Z,56.09
2018-01-26T09:18:08.276Z,55.50
2018-01-26T09:20:36.730Z,55.18
2018-01-26T09:23:05.085Z,54.32
2018-01-26T09:25:33.559Z,53.37
2018-01-26T09:28:01.981Z,53.49
2018-01-26T09:30:30.700Z,54.22
2018-01-26T09:32:59.067Z,54.65
2018-01-26T09:35:27.467Z,54.49
2018-01-26T09:37:55.923Z,55.37
2018-01-26T09:40:24.328Z,56.85
2018-01-26T09:42:53.065Z,56.08
2018-01-26T09:45:21.458Z,56.23
2018-01-26T09:47:49.863Z,58.72
2018-01-26T09:50:20.974Z,57.99
2018-01-26T09:52:49.362Z,59.09
2018-01-26T09:55:17.808Z,56.89
2018-01-26T09:57:46.189Z,55.99
2018-01-26T10:00:14.633Z,53.88
2018-01-26T10:02:43.098Z,53.33
2018-01-26T10:05:11.548Z,54.65
2018-01-26T10:07:40.204Z,52.55
2018-01-26T10:10:08.595Z,51.70
2018-01-26T10:12:37.017Z,50.01
2018-01-26T10:15:05.496Z,49.44
2018-01-26T10:17:33.898Z,50.06
2018-01-26T10:20:02.615Z,49.48
2018-01-26T10:22:31.008Z,49.57
2018-01-26T10:24:59.382Z,50.19
2018-01-26T10:27:27.787Z,50.61
2018-01-26T10:29:56.178Z,51.32
2018-01-26T10:32:24.719Z,54.16
2018-01-26T10:34:53.123Z,54.16
2018-01-26T10:37:21.537Z,55.14
2018-01-26T10:39:49.945Z,53.01
2018-01-26T10:42:18.402Z,52.95
2018-01-26T10:44:46.874Z,55.94
2018-01-26T10:47:15.279Z,54.21
2018-01-26T10:49:43.672Z,55.64
2018-01-26T10:52:12.079Z,54.28
2018-01-26T10:54:40.463Z,54.66
2018-01-26T10:57:09.074Z,56.48
2018-01-26T10:59:37.462Z,53.91
2018-01-26T11:02:05.843Z,54.36
2018-01-26T11:04:34.240Z,53.65
2018-01-26T11:07:02.640Z,52.54
2018-01-26T11:09:31.454Z,53.30
2018-01-26T11:11:59.911Z,54.37
2018-01-26T11:14:28.314Z,54.63
2018-01-26T11:16:56.715Z,54.54
2018-01-26T11:19:25.214Z,53.41
2018-01-26T11:21:53.657Z,53.38
2018-01-26T11:24:22.039Z,52.82
2018-01-26T11:26:50.435Z,53.59
2018-01-26T11:29:18.838Z,52.39
2018-01-26T11:31:47.234Z,51.59
2018-01-26T11:34:15.695Z,52.72
2018-01-26T11:36:44.083Z,51.15
2018-01-26T11:39:12.546Z,50.32
2018-01-26T11:41:40.931Z,49.97
2018-01-26T11:44:09.347Z,50.23
2018-01-26T11:46:38.140Z,49.91
2018-01-26T11:49:06.632Z,49.23
2018-01-26T11:51:36.010Z,49.01
2018-01-26T11:54:04.407Z,53.42
2018-01-26T11:56:32.807Z,51.64
2018-01-26T11:59:01.319Z,52.18
2018-01-26T12:01:29.710Z,52.40
2018-01-26T12:03:58.121Z,51.36
2018-01-26T12:06:26.522Z,52.96
2018-01-26T12:08:54.920Z,52.33
2018-01-26T12:11:23.743Z,52.07
2018-01-26T12:13:52.219Z,51.09
2018-01-26T12:16:20.615Z,50.15
2018-01-26T12:18:49.031Z,49.98
2018-01-26T12:21:17.422Z,51.38
2018-01-26T12:23:45.880Z,50.39
2018-01-26T12:26:14.302Z,50.60
2018-01-26T12:28:42.707Z,51.37
2018-01-26T12:31:11.182Z,51.47
2018-01-26T12:33:39.571Z,50.03
2018-01-26T12:36:08.367Z,49.54
2018-01-26T12:38:36.760Z,51.57
2018-01-26T12:41:05.215Z,51.16
2018-01-26T12:43:33.586Z,51.61
2018-01-26T12:46:01.979Z,51.93
2018-01-26T12:48:30.822Z,51.96
2018-01-26T12:50:59.263Z,53.38
2018-01-26T12:53:27.693Z,53.01
2018-01-26T12:55:56.083Z,52.44
2018-01-26T12:58:24.485Z,53.61
2018-01-26T13:00:54.017Z,52.65
2018-01-26T13:03:22.412Z,51.83
2018-01-26T13:05:50.817Z,51.84
2018-01-26T13:08:19.257Z,51.12
2018-01-26T13:10:47.655Z,52.28
2018-01-26T13:13:16.263Z,50.60
2018-01-26T13:15:44.660Z,50.86
2018-01-26T13:18:13.079Z,51.49
2018-01-26T13:20:41.466Z,49.66
2018-01-26T13:23:09.951Z,49.92
2018-01-26T13:25:38.399Z,48.78
2018-01-26T13:28:06.792Z,47.69
2018-01-26T13:30:35.197Z,47.99
2018-01-26T13:33:03.578Z,48.09
2018-01-26T13:35:31.990Z,45.99
2018-01-26T13:38:00.447Z,46.17
2018-01-26T13:40:28.931Z,46.44
2018-01-26T13:42:57.357Z,47.09
2018-01-26T13:45:25.763Z,46.69
2018-01-26T13:47:54.177Z,49.25
2018-01-26T13:50:22.970Z,49.12
2018-01-26T13:52:51.361Z,49.53
2018-01-26T13:55:19.767Z,49.11
2018-01-26T13:57:48.167Z,49.59
2018-01-26T14:00:16.579Z,51.87
2018-01-26T14:02:45.302Z,51.29
2018-01-26T14:05:13.696Z,51.22
2018-01-26T14:07:42.135Z,51.37
2018-01-26T14:10:10.543Z,49.91
2018-01-26T14:12:38.947Z,50.57
2018-01-26T14:15:07.641Z,50.82
2018-01-26T14:17:36.029Z,51.26
2018-01-26T14:20:04.427Z,50.42
2018-01-26T14:22:32.809Z,53.13
2018-01-26T14:25:01.198Z,51.35
2018-01-26T14:27:30.059Z,51.38
2018-01-26T14:29:58.454Z,52.04
2018-01-26T14:32:26.876Z,53.15
2018-01-26T14:34:55.270Z,52.55
2018-01-26T14:37:23.758Z,52.33
2018-01-26T14:39:52.492Z,52.30
2018-01-26T14:42:20.910Z,51.71
2018-01-26T14:44:49.290Z,51.71
2018-01-26T14:47:17.706Z,54.16
2018-01-26T14:49:46.116Z,54.65
2018-01-26T14:52:14.630Z,53.43
2018-01-26T14:54:43.023Z,53.81
2018-01-26T14:57:11.419Z,52.71
2018-01-26T14:59:39.826Z,53.08
2018-01-26T15:02:08.221Z,52.81
2018-01-26T15:04:36.943Z,51.24
2018-01-26T15:07:05.341Z,51.37
2018-01-26T15:09:33.743Z,51.64
2018-01-26T15:12:02.228Z,53.37
2018-01-26T15:14:30.656Z,55.78
2018-01-26T15:16:59.115Z,57.56
2018-01-26T15:19:27.532Z,57.20
2018-01-26T15:21:55.934Z,56.83
2018-01-26T15:24:24.349Z,56.99
2018-01-26T15:26:52.749Z,58.09
2018-01-26T15:29:21.235Z,57.50
2018-01-26T15:31:49.662Z,56.93
2018-01-26T15:34:18.068Z,56.65
2018-01-26T15:36:46.518Z,58.78
2018-01-26T15:39:16.770Z,57.12
2018-01-26T15:41:47.158Z,58.74
2018-01-26T15:44:15.562Z,60.06
2018-01-26T15:46:43.956Z,59.36
2018-01-26T15:49:12.357Z,57.63
2018-01-26T15:51:40.764Z,59.35
2018-01-26T15:54:09.534Z,61.42
2018-01-26T15:56:37.937Z,61.24
2018-01-26T15:59:06.530Z,60.69
2018-01-26T16:01:34.923Z,60.08
2018-01-26T16:04:03.415Z,59.84
2018-01-26T16:06:31.892Z,59.08
2018-01-26T16:09:00.313Z,59.49
2018-01-26T16:11:28.730Z,58.68
2018-01-26T16:13:57.143Z,58.57
2018-01-26T16:16:25.622Z,58.92
2018-01-26T16:18:54.102Z,60.35
2018-01-26T16:21:22.528Z,60.53
2018-01-26T16:23:50.918Z,60.96
2018-01-26T16:26:19.353Z,62.55
2018-01-26T16:28:47.746Z,61.40
2018-01-26T16:31:16.363Z,62.25
2018-01-26T16:33:44.763Z,62.24
2018-01-26T16:36:13.172Z,61.34
2018-01-26T16:38:41.554Z,59.01
2018-01-26T16:41:09.950Z,58.49
2018-01-26T16:43:38.418Z,58.67
2018-01-26T16:46:06.823Z,59.40
2018-01-26T16:48:35.283Z,60.97
2018-01-26T16:51:03.702Z,61.70
2018-01-26T16:53:32.090Z,63.02
2018-01-26T16:56:00.850Z,62.52
2018-01-26T16:58:29.292Z,60.97
2018-01-26T17:00:57.698Z,61.09
2018-01-26T17:03:26.114Z,60.47
2018-01-26T17:05:54.510Z,59.89
2018-01-26T17:08:23.226Z,59.22
2018-01-26T17:10:51.648Z,59.29
2018-01-26T17:13:20.054Z,60.61
2018-01-26T17:15:48.518Z,59.13
2018-01-26T17:18:16.922Z,59.81
2018-01-26T17:20:45.830Z,59.63
2018-01-26T17:23:14.240Z,58.60
2018-01-26T17:25:42.646Z,59.21
2018-01-26T17:28:11.083Z,58.54
2018-01-26T17:30:39.508Z,58.39
2018-01-26T17:33:08.062Z,58.36
2018-01-26T17:35:36.466Z,59.16
2018-01-26T17:38:05.278Z,59.97
2018-01-26T17:40:33.690Z,59.03
2018-01-26T17:43:02.200Z,58.78
2018-01-26T17:45:30.638Z,59.99
2018-01-26T17:47:59.026Z,61.66
2018-01-26T17:50:27.470Z,60.69
2018-01-26T17:52:55.868Z,59.61
2018-01-26T17:55:24.253Z,61.38
2018-01-26T17:57:52.682Z,60.51
2018-01-26T18:00:21.142Z,59.54
2018-01-26T18:02:49.957Z,61.68
2018-01-26T18:05:18.350Z,59.54
2018-01-26T18:07:46.757Z,59.65
2018-01-26T18:10:15.160Z,61.50
2018-01-26T18:12:43.632Z,61.32
2018-01-26T18:15:12.119Z,61.86
2018-01-26T18:17:40.606Z,61.08
2018-01-26T18:20:09.014Z,61.20
2018-01-26T18:25:37.798Z,60.77
2018-01-26T18:28:06.522Z,61.29
2018-01-26T18:30:34.904Z,61.58
2018-01-26T18:33:03.294Z,61.25
2018-01-26T18:35:31.700Z,61.03
2018-01-26T18:38:00.096Z,61.84
2018-01-26T18:40:28.493Z,62.77
2018-01-26T18:42:56.894Z,61.30
2018-01-26T18:45:27.715Z,61.41
2018-01-26T18:47:56.295Z,60.26
2018-01-26T18:50:24.802Z,60.62
2018-01-26T18:52:53.348Z,60.63
2018-01-26T18:55:21.855Z,59.67
2018-01-26T18:57:50.287Z,60.93
2018-01-26T19:00:18.747Z,59.93
2018-01-26T19:02:47.154Z,60.56
2018-01-26T19:05:15.564Z,59.59
2018-01-26T19:07:44.048Z,59.70
2018-01-26T19:10:12.455Z,59.93
2018-01-26T19:12:41.015Z,59.77
2018-01-26T19:15:10.093Z,60.06
2018-01-26T19:17:39.490Z,60.22
2018-01-26T19:20:08.307Z,60.49
2018-01-26T19:22:36.795Z,60.02
2018-01-26T19:25:05.206Z,59.82
2018-01-26T19:27:33.691Z,59.20
2018-01-26T19:30:02.095Z,59.37
2018-01-26T19:32:30.554Z,59.09
2018-01-26T19:34:58.988Z,58.62
2018-01-26T19:37:27.393Z,59.77
2018-01-26T19:39:56.079Z,59.27
2018-01-26T19:42:24.526Z,59.75
2018-01-26T19:44:52.932Z,60.19
2018-01-26T19:47:21.419Z,60.84
2018-01-26T19:49:49.835Z,59.78
2018-01-26T19:52:18.551Z,59.22
2018-01-26T19:54:46.962Z,59.11
2018-01-26T19:57:15.398Z,58.68
2018-01-26T19:59:43.843Z,58.96
2018-01-26T20:02:12.236Z,59.21
2018-01-26T20:04:46.364Z,58.80
2018-01-26T20:07:29.174Z,59.22
2018-01-26T20:09:57.978Z,57.76
2018-01-26T20:12:27.162Z,59.22
2018-01-26T20:14:55.628Z,60.03
2018-01-26T20:17:24.150Z,58.86
2018-01-26T20:19:52.606Z,58.49
2018-01-26T20:22:21.071Z,58.63
2018-01-26T20:24:49.566Z,59.90
2018-01-26T20:27:18.164Z,59.86
2018-01-26T20:29:46.662Z,60.77
2018-01-26T20:32:19.962Z,60.82
2018-01-26T20:34:48.458Z,59.27
2018-01-26T20:37:16.849Z,58.58
2018-01-26T20:39:45.215Z,59.66
2018-01-26T20:42:13.637Z,59.00
2018-01-26T20:44:42.039Z,59.33
2018-01-26T20:47:10.754Z,58.53
2018-01-26T20:49:39.241Z,60.85
2018-01-26T20:52:07.649Z,60.83
2018-01-26T20:54:36.380Z,59.10
2018-01-26T20:57:04.983Z,59.33
2018-01-26T20:59:33.403Z,60.79
2018-01-26T21:02:01.878Z,59.58
2018-01-26T21:04:30.304Z,58.76
2018-01-26T21:06:58.712Z,59.42
2018-01-26T21:09:27.467Z,57.93
2018-01-26T21:11:55.867Z,58.36
2018-01-26T21:14:24.387Z,58.69
2018-01-26T21:16:53.086Z,59.07
2018-01-26T21:19:21.502Z,59.20
2018-01-26T21:21:49.911Z,59.06
2018-01-26T21:24:18.604Z,59.68
2018-01-26T21:26:47.002Z,59.60
2018-01-26T21:29:15.402Z,59.92
2018-01-26T21:31:44.137Z,59.08
2018-01-26T21:34:12.595Z,58.95
2018-01-26T21:36:41.004Z,60.64
2018-01-26T21:39:09.859Z,58.95
2018-01-26T21:41:38.267Z,58.83
2018-01-26T21:44:06.669Z,60.22
2018-01-26T21:46:35.388Z,60.42
2018-01-26T21:49:03.782Z,60.81
2018-01-26T21:51:32.282Z,61.00
2018-01-26T21:54:00.861Z,58.74
2018-01-26T21:56:29.311Z,60.54
2018-01-26T21:58:57.728Z,60.01
2018-01-26T22:01:26.435Z,58.68
2018-01-26T22:03:54.830Z,59.40
2018-01-26T22:06:29.875Z,60.00
2018-01-26T22:08:58.306Z,59.57
2018-01-26T22:11:26.713Z,58.82
2018-01-26T22:13:55.533Z,58.57
2018-01-26T22:16:23.950Z,58.96
2018-01-26T22:18:52.342Z,60.46
2018-01-26T22:21:20.895Z,61.35
2018-01-26T22:23:49.291Z,59.62
2018-01-26T22:26:17.659Z,60.53
2018-01-26T22:28:46.145Z,59.21
2018-01-26T22:31:14.546Z,58.46
2018-01-26T22:33:43.160Z,58.95
2018-01-26T22:36:11.561Z,59.13
2018-01-26T22:38:39.967Z,58.32
2018-01-26T22:41:08.684Z,58.77
2018-01-26T22:43:37.103Z,59.17
2018-01-26T22:46:05.534Z,59.89
2018-01-26T22:48:34.218Z,59.04
2018-01-26T22:51:02.631Z,60.12
2018-01-26T22:53:31.043Z,59.17
2018-01-26T22:55:59.728Z,60.00
2018-01-26T22:58:28.187Z,59.97
2018-01-26T23:00:56.628Z,59.41
2018-01-26T23:03:25.524Z,60.00
2018-01-26T23:05:53.944Z,60.54
2018-01-26T23:08:22.326Z,61.81
2018-01-26T23:10:51.065Z,61.47
2018-01-26T23:13:19.474Z,61.59
2018-01-26T23:15:47.857Z,62.56
2018-01-26T23:18:16.227Z,60.25
2018-01-26T23:20:44.599Z,60.01
2018-01-26T23:23:12.970Z,59.78
2018-01-26T23:25:41.341Z,59.31
2018-01-26T23:28:09.717Z,59.48
2018-01-26T23:30:38.102Z,59.99
2018-01-26T23:33:06.483Z,59.54
2018-01-26T23:35:34.867Z,59.31
2018-01-26T23:38:03.383Z,59.43
2018-01-26T23:40:31.846Z,60.57
2018-01-26T23:43:00.275Z,58.82
2018-01-26T23:45:29.007Z,59.44
2018-01-26T23:47:57.427Z,60.07
2018-01-26T23:50:25.916Z,59.74
2018-01-26T23:52:54.378Z,59.62
2018-01-26T23:55:22.824Z,58.99
2018-01-26T23:57:51.242Z,58.60
